This is the latest recevied weather packets stored in our database for station/object K7GFH-13. If no packets are shown the sender has not sent any weather packets the latest 10 day(s).
| Time | Temp. | Humidity | Pressure | Rain* | Wind** | Luminosity | Snow |
|---|---|---|---|---|---|---|---|
| 1777812790 | 10.56° C | 89% | 1013.7 hPa | 0 mm | - | 2 W/m² | - |
| 1777811888 | 10.56° C | 88% | 1013.7 hPa | 0 mm | - | 0 W/m² | - |
| 1777810985 | 10.56° C | 89% | 1013.8 hPa | 0 mm | - | 0 W/m² | - |
| 1777810086 | 11.67° C | 85% | 1013.8 hPa | 0 mm | - | 0 W/m² | - |
| 1777809185 | 11.67° C | 86% | 1014 hPa | 0 mm | - | 0 W/m² | - |
| 1777808281 | 12.22° C | 84% | 1013.9 hPa | 0 mm | - | 0 W/m² | - |
| 1777807381 | 12.78° C | 82% | 1013.9 hPa | 0 mm | - | 0 W/m² | - |
| 1777806481 | 13.33° C | 81% | 1013.8 hPa | 0 mm | - | 0 W/m² | - |
| 1777805577 | 12.78° C | 83% | 1014.1 hPa | 0 mm | - | 0 W/m² | - |
| 1777804674 | 13.33° C | 84% | 1014.1 hPa | 0 mm | - | 0 W/m² | - |
| 1777803771 | 12.78° C | 87% | 1014.2 hPa | 0 mm | - | 0 W/m² | - |
| 1777802867 | 13.33° C | 86% | 1014.1 hPa | 0 mm | - | 0 W/m² | - |
| 1777801967 | 12.78° C | 89% | 1014.1 hPa | 0 mm | - | 0 W/m² | - |
| 1777801063 | 12.78° C | 90% | 1014.4 hPa | 0 mm | - | 0 W/m² | - |
| 1777800159 | 13.33° C | 89% | 1014.5 hPa | 0 mm | - | 0 W/m² | - |
| 1777799258 | 13.33° C | 89% | 1014.6 hPa | 0 mm | - | 0 W/m² | - |
| 1777798353 | 14.44° C | 84% | 1014.6 hPa | 0 mm | - | 0 W/m² | - |
| 1777797451 | 13.33° C | 90% | 1014.6 hPa | 0 mm | - | 0 W/m² | - |
| 1777796547 | 13.89° C | 91% | 1014.3 hPa | 0 mm | - | 0 W/m² | - |
| 1777795646 | 12.78° C | 94% | 1014.7 hPa | 0 mm | - | 0 W/m² | - |
| 1777794743 | 13.33° C | 92% | 1014.7 hPa | 0 mm | - | 0 W/m² | - |
| 1777793842 | 13.33° C | 92% | 1014.5 hPa | 0 mm | - | 0 W/m² | - |
| 1777792941 | 12.78° C | 92% | 1014.5 hPa | 0 mm | - | 0 W/m² | - |
| 1777792036 | 13.33° C | 91% | 1014.6 hPa | 0 mm | - | 0 W/m² | - |
| 1777791135 | 13.33° C | 91% | 1014.6 hPa | 0 mm | - | 0 W/m² | - |
* Rain latest hour (hover to see other rain measurements)
** Current wind speed in m/s (hover to see current wind gust speed)